<?xml version="1.0" encoding="UTF-8" standalone="no" ?>
<gpx xmlns="http://www.topografix.com/GPX/1/1" xmlns:xsi="http://www.w3.org/2001/XMLSchema-instance" xsi:schemaLocation="http://www.topografix.com/GPX/1/1 http://www.topografix.com/GPX/1/1/gpx.xsd" version="1.1" creator="VisuGPX - https://www.visugpx.com">
  <metadata>
    <name>Etape 5b : Ste-Foy-Tarentaise - Refuge du Ruitor</name>
    <desc><![CDATA[Raid Briançon - Chamonix :

Etape 5b : Ste-Foy-Tarentaise - Refuge du Ruitor

(retrancher 2h sur les points de la trace !)]]></desc>
  </metadata>
  <trk>
    <name><![CDATA[j5b-20120329]]></name>
    <trkseg>
      <trkpt lat="45.6006" lon="6.89116">
        <ele>1249</ele>
        <time>2012-03-29T13:51:55Z</time>
      </trkpt>
      <trkpt lat="45.60063" lon="6.89129">
        <ele>1250</ele>
        <time>2012-03-29T13:52:13Z</time>
      </trkpt>
      <trkpt lat="45.60067" lon="6.8914">
        <ele>1250</ele>
        <time>2012-03-29T13:52:34Z</time>
      </trkpt>
      <trkpt lat="45.60068" lon="6.89152">
        <ele>1252</ele>
        <time>2012-03-29T13:52:48Z</time>
      </trkpt>
      <trkpt lat="45.60073" lon="6.8916">
        <ele>1250</ele>
        <time>2012-03-29T13:53:08Z</time>
      </trkpt>
      <trkpt lat="45.60077" lon="6.89173">
        <ele>1250</ele>
        <time>2012-03-29T13:53:27Z</time>
      </trkpt>
      <trkpt lat="45.60083" lon="6.89191">
        <ele>1251</ele>
        <time>2012-03-29T13:54:04Z</time>
      </trkpt>
      <trkpt lat="45.60088" lon="6.89209">
        <ele>1252</ele>
        <time>2012-03-29T13:54:46Z</time>
      </trkpt>
      <trkpt lat="45.60082" lon="6.89219">
        <ele>1258</ele>
        <time>2012-03-29T13:56:16Z</time>
      </trkpt>
      <trkpt lat="45.60071" lon="6.89214">
        <ele>1264</ele>
        <time>2012-03-29T13:56:55Z</time>
      </trkpt>
      <trkpt lat="45.60062" lon="6.89207">
        <ele>1268</ele>
        <time>2012-03-29T13:57:20Z</time>
      </trkpt>
      <trkpt lat="45.60056" lon="6.89199">
        <ele>1270</ele>
        <time>2012-03-29T13:57:43Z</time>
      </trkpt>
      <trkpt lat="45.60051" lon="6.89187">
        <ele>1270</ele>
        <time>2012-03-29T13:58:06Z</time>
      </trkpt>
      <trkpt lat="45.60042" lon="6.89169">
        <ele>1272</ele>
        <time>2012-03-29T13:58:32Z</time>
      </trkpt>
      <trkpt lat="45.60037" lon="6.89146">
        <ele>1271</ele>
        <time>2012-03-29T13:58:59Z</time>
      </trkpt>
      <trkpt lat="45.60031" lon="6.89123">
        <ele>1270</ele>
        <time>2012-03-29T13:59:23Z</time>
      </trkpt>
      <trkpt lat="45.60022" lon="6.89109">
        <ele>1272</ele>
        <time>2012-03-29T13:59:36Z</time>
      </trkpt>
      <trkpt lat="45.60016" lon="6.89122">
        <ele>1280</ele>
        <time>2012-03-29T13:59:48Z</time>
      </trkpt>
      <trkpt lat="45.60018" lon="6.89148">
        <ele>1285</ele>
        <time>2012-03-29T14:00:02Z</time>
      </trkpt>
      <trkpt lat="45.60025" lon="6.89171">
        <ele>1285</ele>
        <time>2012-03-29T14:00:16Z</time>
      </trkpt>
      <trkpt lat="45.6003" lon="6.89195">
        <ele>1289</ele>
        <time>2012-03-29T14:00:28Z</time>
      </trkpt>
      <trkpt lat="45.60035" lon="6.89218">
        <ele>1291</ele>
        <time>2012-03-29T14:00:42Z</time>
      </trkpt>
      <trkpt lat="45.60044" lon="6.89243">
        <ele>1289</ele>
        <time>2012-03-29T14:00:55Z</time>
      </trkpt>
      <trkpt lat="45.60053" lon="6.89266">
        <ele>1288</ele>
        <time>2012-03-29T14:01:00Z</time>
      </trkpt>
      <trkpt lat="45.60061" lon="6.89289">
        <ele>1288</ele>
        <time>2012-03-29T14:01:14Z</time>
      </trkpt>
      <trkpt lat="45.60073" lon="6.89329">
        <ele>1290</ele>
        <time>2012-03-29T14:01:21Z</time>
      </trkpt>
      <trkpt lat="45.60082" lon="6.89365">
        <ele>1291</ele>
        <time>2012-03-29T14:01:34Z</time>
      </trkpt>
      <trkpt lat="45.6009" lon="6.89413">
        <ele>1300</ele>
        <time>2012-03-29T14:01:52Z</time>
      </trkpt>
      <trkpt lat="45.60098" lon="6.89451">
        <ele>1309</ele>
        <time>2012-03-29T14:02:07Z</time>
      </trkpt>
      <trkpt lat="45.60107" lon="6.89471">
        <ele>1311</ele>
        <time>2012-03-29T14:02:18Z</time>
      </trkpt>
      <trkpt lat="45.60112" lon="6.89496">
        <ele>1316</ele>
        <time>2012-03-29T14:02:22Z</time>
      </trkpt>
      <trkpt lat="45.60129" lon="6.8954">
        <ele>1323</ele>
        <time>2012-03-29T14:02:32Z</time>
      </trkpt>
      <trkpt lat="45.60138" lon="6.89565">
        <ele>1331</ele>
        <time>2012-03-29T14:02:48Z</time>
      </trkpt>
      <trkpt lat="45.60155" lon="6.89594">
        <ele>1337</ele>
        <time>2012-03-29T14:03:04Z</time>
      </trkpt>
      <trkpt lat="45.6017" lon="6.896">
        <ele>1335</ele>
        <time>2012-03-29T14:03:29Z</time>
      </trkpt>
      <trkpt lat="45.60191" lon="6.89614">
        <ele>1339</ele>
        <time>2012-03-29T14:03:34Z</time>
      </trkpt>
      <trkpt lat="45.60204" lon="6.89622">
        <ele>1341</ele>
        <time>2012-03-29T14:03:40Z</time>
      </trkpt>
      <trkpt lat="45.6022" lon="6.89628">
        <ele>1341</ele>
        <time>2012-03-29T14:03:54Z</time>
      </trkpt>
      <trkpt lat="45.60237" lon="6.89626">
        <ele>1339</ele>
        <time>2012-03-29T14:04:11Z</time>
      </trkpt>
      <trkpt lat="45.60248" lon="6.89632">
        <ele>1340</ele>
        <time>2012-03-29T14:04:33Z</time>
      </trkpt>
      <trkpt lat="45.60259" lon="6.89646">
        <ele>1343</ele>
        <time>2012-03-29T14:04:45Z</time>
      </trkpt>
      <trkpt lat="45.60267" lon="6.8965">
        <ele>1342</ele>
        <time>2012-03-29T14:05:16Z</time>
      </trkpt>
      <trkpt lat="45.60272" lon="6.89655">
        <ele>1343</ele>
        <time>2012-03-29T14:05:29Z</time>
      </trkpt>
      <trkpt lat="45.60279" lon="6.89659">
        <ele>1343</ele>
        <time>2012-03-29T14:05:40Z</time>
      </trkpt>
      <trkpt lat="45.60286" lon="6.89664">
        <ele>1343</ele>
        <time>2012-03-29T14:09:21Z</time>
      </trkpt>
      <trkpt lat="45.60305" lon="6.89698">
        <ele>1349</ele>
        <time>2012-03-29T14:09:49Z</time>
      </trkpt>
      <trkpt lat="45.60318" lon="6.89714">
        <ele>1351</ele>
        <time>2012-03-29T14:10:13Z</time>
      </trkpt>
      <trkpt lat="45.6033" lon="6.89733">
        <ele>1353</ele>
        <time>2012-03-29T14:10:31Z</time>
      </trkpt>
      <trkpt lat="45.60339" lon="6.89766">
        <ele>1358</ele>
        <time>2012-03-29T14:11:02Z</time>
      </trkpt>
      <trkpt lat="45.60338" lon="6.89781">
        <ele>1361</ele>
        <time>2012-03-29T14:11:19Z</time>
      </trkpt>
      <trkpt lat="45.60329" lon="6.89787">
        <ele>1365</ele>
        <time>2012-03-29T14:11:40Z</time>
      </trkpt>
      <trkpt lat="45.60315" lon="6.8977">
        <ele>1364</ele>
        <time>2012-03-29T14:12:00Z</time>
      </trkpt>
      <trkpt lat="45.60295" lon="6.8975">
        <ele>1364</ele>
        <time>2012-03-29T14:12:27Z</time>
      </trkpt>
      <trkpt lat="45.6027" lon="6.89743">
        <ele>1370</ele>
        <time>2012-03-29T14:12:57Z</time>
      </trkpt>
      <trkpt lat="45.60262" lon="6.89744">
        <ele>1373</ele>
        <time>2012-03-29T14:13:16Z</time>
      </trkpt>
      <trkpt lat="45.60255" lon="6.89762">
        <ele>1380</ele>
        <time>2012-03-29T14:13:33Z</time>
      </trkpt>
      <trkpt lat="45.60278" lon="6.89769">
        <ele>1375</ele>
        <time>2012-03-29T14:13:58Z</time>
      </trkpt>
      <trkpt lat="45.60293" lon="6.8979">
        <ele>1376</ele>
        <time>2012-03-29T14:14:23Z</time>
      </trkpt>
      <trkpt lat="45.60296" lon="6.8981">
        <ele>1382</ele>
        <time>2012-03-29T14:14:45Z</time>
      </trkpt>
      <trkpt lat="45.60303" lon="6.89824">
        <ele>1384</ele>
        <time>2012-03-29T14:15:03Z</time>
      </trkpt>
      <trkpt lat="45.60308" lon="6.89847">
        <ele>1389</ele>
        <time>2012-03-29T14:15:19Z</time>
      </trkpt>
      <trkpt lat="45.60309" lon="6.89858">
        <ele>1392</ele>
        <time>2012-03-29T14:15:40Z</time>
      </trkpt>
      <trkpt lat="45.60319" lon="6.89883">
        <ele>1395</ele>
        <time>2012-03-29T14:16:00Z</time>
      </trkpt>
      <trkpt lat="45.60335" lon="6.8991">
        <ele>1395</ele>
        <time>2012-03-29T14:16:19Z</time>
      </trkpt>
      <trkpt lat="45.60346" lon="6.89935">
        <ele>1396</ele>
        <time>2012-03-29T14:16:44Z</time>
      </trkpt>
      <trkpt lat="45.60354" lon="6.89958">
        <ele>1398</ele>
        <time>2012-03-29T14:17:10Z</time>
      </trkpt>
      <trkpt lat="45.60362" lon="6.89986">
        <ele>1399</ele>
        <time>2012-03-29T14:17:26Z</time>
      </trkpt>
      <trkpt lat="45.60368" lon="6.90027">
        <ele>1402</ele>
        <time>2012-03-29T14:17:49Z</time>
      </trkpt>
      <trkpt lat="45.60375" lon="6.9005">
        <ele>1403</ele>
        <time>2012-03-29T14:18:15Z</time>
      </trkpt>
      <trkpt lat="45.60383" lon="6.90086">
        <ele>1407</ele>
        <time>2012-03-29T14:18:38Z</time>
      </trkpt>
      <trkpt lat="45.60388" lon="6.90114">
        <ele>1410</ele>
        <time>2012-03-29T14:19:01Z</time>
      </trkpt>
      <trkpt lat="45.60393" lon="6.90133">
        <ele>1411</ele>
        <time>2012-03-29T14:19:24Z</time>
      </trkpt>
      <trkpt lat="45.60398" lon="6.90155">
        <ele>1412</ele>
        <time>2012-03-29T14:19:49Z</time>
      </trkpt>
      <trkpt lat="45.60402" lon="6.90179">
        <ele>1412</ele>
        <time>2012-03-29T14:20:18Z</time>
      </trkpt>
      <trkpt lat="45.60407" lon="6.90197">
        <ele>1411</ele>
        <time>2012-03-29T14:20:43Z</time>
      </trkpt>
      <trkpt lat="45.60408" lon="6.9022">
        <ele>1413</ele>
        <time>2012-03-29T14:20:48Z</time>
      </trkpt>
      <trkpt lat="45.60409" lon="6.90234">
        <ele>1414</ele>
        <time>2012-03-29T14:21:16Z</time>
      </trkpt>
      <trkpt lat="45.60407" lon="6.90258">
        <ele>1416</ele>
        <time>2012-03-29T14:21:37Z</time>
      </trkpt>
      <trkpt lat="45.60404" lon="6.90282">
        <ele>1420</ele>
        <time>2012-03-29T14:22:02Z</time>
      </trkpt>
      <trkpt lat="45.60403" lon="6.90301">
        <ele>1421</ele>
        <time>2012-03-29T14:22:22Z</time>
      </trkpt>
      <trkpt lat="45.60401" lon="6.90336">
        <ele>1423</ele>
        <time>2012-03-29T14:22:53Z</time>
      </trkpt>
      <trkpt lat="45.60405" lon="6.9037">
        <ele>1424</ele>
        <time>2012-03-29T14:23:31Z</time>
      </trkpt>
      <trkpt lat="45.60413" lon="6.90421">
        <ele>1425</ele>
        <time>2012-03-29T14:24:04Z</time>
      </trkpt>
      <trkpt lat="45.60416" lon="6.90467">
        <ele>1428</ele>
        <time>2012-03-29T14:24:31Z</time>
      </trkpt>
      <trkpt lat="45.60424" lon="6.90518">
        <ele>1431</ele>
        <time>2012-03-29T14:24:58Z</time>
      </trkpt>
      <trkpt lat="45.60433" lon="6.90556">
        <ele>1433</ele>
        <time>2012-03-29T14:25:23Z</time>
      </trkpt>
      <trkpt lat="45.60437" lon="6.90594">
        <ele>1435</ele>
        <time>2012-03-29T14:25:47Z</time>
      </trkpt>
      <trkpt lat="45.60432" lon="6.90616">
        <ele>1437</ele>
        <time>2012-03-29T14:26:06Z</time>
      </trkpt>
      <trkpt lat="45.60429" lon="6.90643">
        <ele>1439</ele>
        <time>2012-03-29T14:26:33Z</time>
      </trkpt>
      <trkpt lat="45.6043" lon="6.90677">
        <ele>1440</ele>
        <time>2012-03-29T14:26:53Z</time>
      </trkpt>
      <trkpt lat="45.60434" lon="6.90702">
        <ele>1443</ele>
        <time>2012-03-29T14:27:15Z</time>
      </trkpt>
      <trkpt lat="45.60439" lon="6.90721">
        <ele>1444</ele>
        <time>2012-03-29T14:27:44Z</time>
      </trkpt>
      <trkpt lat="45.60455" lon="6.90752">
        <ele>1448</ele>
        <time>2012-03-29T14:28:10Z</time>
      </trkpt>
      <trkpt lat="45.60473" lon="6.90769">
        <ele>1450</ele>
        <time>2012-03-29T14:28:39Z</time>
      </trkpt>
      <trkpt lat="45.60485" lon="6.90794">
        <ele>1453</ele>
        <time>2012-03-29T14:28:51Z</time>
      </trkpt>
      <trkpt lat="45.605" lon="6.90807">
        <ele>1454</ele>
        <time>2012-03-29T14:29:20Z</time>
      </trkpt>
      <trkpt lat="45.60521" lon="6.90836">
        <ele>1457</ele>
        <time>2012-03-29T14:29:39Z</time>
      </trkpt>
      <trkpt lat="45.60541" lon="6.90855">
        <ele>1457</ele>
        <time>2012-03-29T14:30:05Z</time>
      </trkpt>
      <trkpt lat="45.60559" lon="6.90882">
        <ele>1459</ele>
        <time>2012-03-29T14:30:32Z</time>
      </trkpt>
      <trkpt lat="45.60579" lon="6.909">
        <ele>1459</ele>
        <time>2012-03-29T14:30:58Z</time>
      </trkpt>
      <trkpt lat="45.60595" lon="6.90924">
        <ele>1461</ele>
        <time>2012-03-29T14:31:24Z</time>
      </trkpt>
      <trkpt lat="45.60605" lon="6.9095">
        <ele>1464</ele>
        <time>2012-03-29T14:31:50Z</time>
      </trkpt>
      <trkpt lat="45.60619" lon="6.90972">
        <ele>1467</ele>
        <time>2012-03-29T14:32:16Z</time>
      </trkpt>
      <trkpt lat="45.60624" lon="6.90993">
        <ele>1471</ele>
        <time>2012-03-29T14:32:40Z</time>
      </trkpt>
      <trkpt lat="45.60634" lon="6.91017">
        <ele>1476</ele>
        <time>2012-03-29T14:33:06Z</time>
      </trkpt>
      <trkpt lat="45.60639" lon="6.9104">
        <ele>1479</ele>
        <time>2012-03-29T14:33:32Z</time>
      </trkpt>
      <trkpt lat="45.60647" lon="6.9106">
        <ele>1481</ele>
        <time>2012-03-29T14:33:58Z</time>
      </trkpt>
      <trkpt lat="45.60648" lon="6.91079">
        <ele>1484</ele>
        <time>2012-03-29T14:34:21Z</time>
      </trkpt>
      <trkpt lat="45.60655" lon="6.911">
        <ele>1484</ele>
        <time>2012-03-29T14:34:43Z</time>
      </trkpt>
      <trkpt lat="45.60662" lon="6.91117">
        <ele>1484</ele>
        <time>2012-03-29T14:35:07Z</time>
      </trkpt>
      <trkpt lat="45.60668" lon="6.91135">
        <ele>1484</ele>
        <time>2012-03-29T14:35:33Z</time>
      </trkpt>
      <trkpt lat="45.60675" lon="6.9116">
        <ele>1484</ele>
        <time>2012-03-29T14:35:46Z</time>
      </trkpt>
      <trkpt lat="45.60684" lon="6.91183">
        <ele>1483</ele>
        <time>2012-03-29T14:36:12Z</time>
      </trkpt>
      <trkpt lat="45.60691" lon="6.91204">
        <ele>1483</ele>
        <time>2012-03-29T14:36:39Z</time>
      </trkpt>
      <trkpt lat="45.60701" lon="6.91229">
        <ele>1483</ele>
        <time>2012-03-29T14:37:03Z</time>
      </trkpt>
      <trkpt lat="45.60705" lon="6.91244">
        <ele>1483</ele>
        <time>2012-03-29T14:37:25Z</time>
      </trkpt>
      <trkpt lat="45.60707" lon="6.9127">
        <ele>1484</ele>
        <time>2012-03-29T14:37:47Z</time>
      </trkpt>
      <trkpt lat="45.60712" lon="6.91291">
        <ele>1486</ele>
        <time>2012-03-29T14:38:07Z</time>
      </trkpt>
      <trkpt lat="45.60716" lon="6.91319">
        <ele>1489</ele>
        <time>2012-03-29T14:38:28Z</time>
      </trkpt>
      <trkpt lat="45.6072" lon="6.91342">
        <ele>1492</ele>
        <time>2012-03-29T14:38:48Z</time>
      </trkpt>
      <trkpt lat="45.60726" lon="6.91357">
        <ele>1494</ele>
        <time>2012-03-29T14:39:13Z</time>
      </trkpt>
      <trkpt lat="45.60726" lon="6.91387">
        <ele>1500</ele>
        <time>2012-03-29T14:41:15Z</time>
      </trkpt>
      <trkpt lat="45.60734" lon="6.9142">
        <ele>1506</ele>
        <time>2012-03-29T14:41:41Z</time>
      </trkpt>
      <trkpt lat="45.60738" lon="6.91441">
        <ele>1510</ele>
        <time>2012-03-29T14:42:12Z</time>
      </trkpt>
      <trkpt lat="45.60734" lon="6.9146">
        <ele>1514</ele>
        <time>2012-03-29T14:42:55Z</time>
      </trkpt>
      <trkpt lat="45.60739" lon="6.91466">
        <ele>1515</ele>
        <time>2012-03-29T14:43:16Z</time>
      </trkpt>
      <trkpt lat="45.60747" lon="6.91466">
        <ele>1514</ele>
        <time>2012-03-29T14:43:21Z</time>
      </trkpt>
      <trkpt lat="45.60762" lon="6.91475">
        <ele>1514</ele>
        <time>2012-03-29T14:43:37Z</time>
      </trkpt>
      <trkpt lat="45.60776" lon="6.91481">
        <ele>1515</ele>
        <time>2012-03-29T14:43:59Z</time>
      </trkpt>
      <trkpt lat="45.6081" lon="6.91487">
        <ele>1516</ele>
        <time>2012-03-29T14:44:22Z</time>
      </trkpt>
      <trkpt lat="45.60833" lon="6.91488">
        <ele>1517</ele>
        <time>2012-03-29T14:44:41Z</time>
      </trkpt>
      <trkpt lat="45.6084" lon="6.91494">
        <ele>1519</ele>
        <time>2012-03-29T14:44:49Z</time>
      </trkpt>
      <trkpt lat="45.60853" lon="6.9153">
        <ele>1522</ele>
        <time>2012-03-29T14:45:14Z</time>
      </trkpt>
      <trkpt lat="45.60865" lon="6.91543">
        <ele>1531</ele>
        <time>2012-03-29T14:45:30Z</time>
      </trkpt>
      <trkpt lat="45.60879" lon="6.91544">
        <ele>1544</ele>
        <time>2012-03-29T14:45:49Z</time>
      </trkpt>
      <trkpt lat="45.60881" lon="6.91535">
        <ele>1542</ele>
        <time>2012-03-29T14:46:04Z</time>
      </trkpt>
      <trkpt lat="45.60886" lon="6.91521">
        <ele>1540</ele>
        <time>2012-03-29T14:46:20Z</time>
      </trkpt>
      <trkpt lat="45.60889" lon="6.91509">
        <ele>1538</ele>
        <time>2012-03-29T14:46:35Z</time>
      </trkpt>
      <trkpt lat="45.60897" lon="6.91501">
        <ele>1539</ele>
        <time>2012-03-29T14:46:54Z</time>
      </trkpt>
      <trkpt lat="45.60911" lon="6.91499">
        <ele>1542</ele>
        <time>2012-03-29T14:47:14Z</time>
      </trkpt>
      <trkpt lat="45.60925" lon="6.91494">
        <ele>1544</ele>
        <time>2012-03-29T14:47:35Z</time>
      </trkpt>
      <trkpt lat="45.60934" lon="6.91481">
        <ele>1543</ele>
        <time>2012-03-29T14:47:54Z</time>
      </trkpt>
      <trkpt lat="45.6093" lon="6.91463">
        <ele>1540</ele>
        <time>2012-03-29T14:48:06Z</time>
      </trkpt>
      <trkpt lat="45.60935" lon="6.91444">
        <ele>1539</ele>
        <time>2012-03-29T14:48:21Z</time>
      </trkpt>
      <trkpt lat="45.60944" lon="6.9143">
        <ele>1540</ele>
        <time>2012-03-29T14:48:35Z</time>
      </trkpt>
      <trkpt lat="45.60952" lon="6.91426">
        <ele>1543</ele>
        <time>2012-03-29T14:48:46Z</time>
      </trkpt>
      <trkpt lat="45.60966" lon="6.91425">
        <ele>1549</ele>
        <time>2012-03-29T14:49:06Z</time>
      </trkpt>
      <trkpt lat="45.60968" lon="6.91422">
        <ele>1550</ele>
        <time>2012-03-29T14:50:32Z</time>
      </trkpt>
      <trkpt lat="45.60974" lon="6.91417">
        <ele>1553</ele>
        <time>2012-03-29T14:50:54Z</time>
      </trkpt>
      <trkpt lat="45.60977" lon="6.91393">
        <ele>1554</ele>
        <time>2012-03-29T14:51:21Z</time>
      </trkpt>
      <trkpt lat="45.60982" lon="6.91373">
        <ele>1556</ele>
        <time>2012-03-29T14:51:40Z</time>
      </trkpt>
      <trkpt lat="45.60987" lon="6.91349">
        <ele>1560</ele>
        <time>2012-03-29T14:52:03Z</time>
      </trkpt>
      <trkpt lat="45.60983" lon="6.91331">
        <ele>1560</ele>
        <time>2012-03-29T14:52:21Z</time>
      </trkpt>
      <trkpt lat="45.60981" lon="6.91314">
        <ele>1561</ele>
        <time>2012-03-29T14:52:43Z</time>
      </trkpt>
      <trkpt lat="45.60979" lon="6.91299">
        <ele>1561</ele>
        <time>2012-03-29T14:53:04Z</time>
      </trkpt>
      <trkpt lat="45.60977" lon="6.91276">
        <ele>1567</ele>
        <time>2012-03-29T14:53:23Z</time>
      </trkpt>
      <trkpt lat="45.60965" lon="6.91262">
        <ele>1564</ele>
        <time>2012-03-29T14:53:39Z</time>
      </trkpt>
      <trkpt lat="45.60958" lon="6.91249">
        <ele>1564</ele>
        <time>2012-03-29T14:53:57Z</time>
      </trkpt>
      <trkpt lat="45.60952" lon="6.91235">
        <ele>1564</ele>
        <time>2012-03-29T14:54:16Z</time>
      </trkpt>
      <trkpt lat="45.60945" lon="6.91214">
        <ele>1576</ele>
        <time>2012-03-29T14:54:37Z</time>
      </trkpt>
      <trkpt lat="45.60946" lon="6.91198">
        <ele>1589</ele>
        <time>2012-03-29T14:54:53Z</time>
      </trkpt>
      <trkpt lat="45.60954" lon="6.91203">
        <ele>1593</ele>
        <time>2012-03-29T14:55:12Z</time>
      </trkpt>
      <trkpt lat="45.60958" lon="6.91213">
        <ele>1587</ele>
        <time>2012-03-29T14:55:28Z</time>
      </trkpt>
      <trkpt lat="45.60967" lon="6.91214">
        <ele>1593</ele>
        <time>2012-03-29T14:55:43Z</time>
      </trkpt>
      <trkpt lat="45.60973" lon="6.91219">
        <ele>1592</ele>
        <time>2012-03-29T14:55:59Z</time>
      </trkpt>
      <trkpt lat="45.60985" lon="6.91227">
        <ele>1593</ele>
        <time>2012-03-29T14:56:18Z</time>
      </trkpt>
      <trkpt lat="45.60989" lon="6.9123">
        <ele>1592</ele>
        <time>2012-03-29T14:56:27Z</time>
      </trkpt>
      <trkpt lat="45.60999" lon="6.91242">
        <ele>1589</ele>
        <time>2012-03-29T14:56:45Z</time>
      </trkpt>
      <trkpt lat="45.61012" lon="6.91257">
        <ele>1592</ele>
        <time>2012-03-29T14:57:08Z</time>
      </trkpt>
      <trkpt lat="45.61018" lon="6.91264">
        <ele>1594</ele>
        <time>2012-03-29T14:57:24Z</time>
      </trkpt>
      <trkpt lat="45.61023" lon="6.91269">
        <ele>1596</ele>
        <time>2012-03-29T14:57:37Z</time>
      </trkpt>
      <trkpt lat="45.61031" lon="6.9128">
        <ele>1598</ele>
        <time>2012-03-29T14:57:58Z</time>
      </trkpt>
      <trkpt lat="45.61037" lon="6.91297">
        <ele>1597</ele>
        <time>2012-03-29T14:58:19Z</time>
      </trkpt>
      <trkpt lat="45.61045" lon="6.91313">
        <ele>1599</ele>
        <time>2012-03-29T14:58:38Z</time>
      </trkpt>
      <trkpt lat="45.61045" lon="6.91333">
        <ele>1595</ele>
        <time>2012-03-29T14:58:58Z</time>
      </trkpt>
      <trkpt lat="45.61048" lon="6.91351">
        <ele>1592</ele>
        <time>2012-03-29T14:59:15Z</time>
      </trkpt>
      <trkpt lat="45.61054" lon="6.91372">
        <ele>1591</ele>
        <time>2012-03-29T14:59:36Z</time>
      </trkpt>
      <trkpt lat="45.61058" lon="6.91382">
        <ele>1593</ele>
        <time>2012-03-29T14:59:51Z</time>
      </trkpt>
      <trkpt lat="45.61062" lon="6.91397">
        <ele>1594</ele>
        <time>2012-03-29T15:00:11Z</time>
      </trkpt>
      <trkpt lat="45.61067" lon="6.91409">
        <ele>1596</ele>
        <time>2012-03-29T15:00:30Z</time>
      </trkpt>
      <trkpt lat="45.61069" lon="6.91413">
        <ele>1597</ele>
        <time>2012-03-29T15:00:46Z</time>
      </trkpt>
      <trkpt lat="45.61062" lon="6.91428">
        <ele>1593</ele>
        <time>2012-03-29T15:03:19Z</time>
      </trkpt>
      <trkpt lat="45.61077" lon="6.91433">
        <ele>1599</ele>
        <time>2012-03-29T15:03:50Z</time>
      </trkpt>
      <trkpt lat="45.61086" lon="6.91454">
        <ele>1608</ele>
        <time>2012-03-29T15:04:13Z</time>
      </trkpt>
      <trkpt lat="45.61093" lon="6.91463">
        <ele>1612</ele>
        <time>2012-03-29T15:04:26Z</time>
      </trkpt>
      <trkpt lat="45.61098" lon="6.91493">
        <ele>1621</ele>
        <time>2012-03-29T15:04:49Z</time>
      </trkpt>
      <trkpt lat="45.611" lon="6.91506">
        <ele>1625</ele>
        <time>2012-03-29T15:05:07Z</time>
      </trkpt>
      <trkpt lat="45.61115" lon="6.91495">
        <ele>1626</ele>
        <time>2012-03-29T15:05:28Z</time>
      </trkpt>
      <trkpt lat="45.61117" lon="6.91469">
        <ele>1620</ele>
        <time>2012-03-29T15:05:51Z</time>
      </trkpt>
      <trkpt lat="45.61121" lon="6.91454">
        <ele>1619</ele>
        <time>2012-03-29T15:06:10Z</time>
      </trkpt>
      <trkpt lat="45.61133" lon="6.9145">
        <ele>1621</ele>
        <time>2012-03-29T15:06:31Z</time>
      </trkpt>
      <trkpt lat="45.61146" lon="6.91457">
        <ele>1625</ele>
        <time>2012-03-29T15:06:50Z</time>
      </trkpt>
      <trkpt lat="45.61159" lon="6.9146">
        <ele>1628</ele>
        <time>2012-03-29T15:07:09Z</time>
      </trkpt>
      <trkpt lat="45.6117" lon="6.91461">
        <ele>1630</ele>
        <time>2012-03-29T15:07:29Z</time>
      </trkpt>
      <trkpt lat="45.61184" lon="6.91471">
        <ele>1633</ele>
        <time>2012-03-29T15:07:51Z</time>
      </trkpt>
      <trkpt lat="45.61195" lon="6.91481">
        <ele>1636</ele>
        <time>2012-03-29T15:08:14Z</time>
      </trkpt>
      <trkpt lat="45.61191" lon="6.91509">
        <ele>1639</ele>
        <time>2012-03-29T15:08:34Z</time>
      </trkpt>
      <trkpt lat="45.61192" lon="6.91517">
        <ele>1641</ele>
        <time>2012-03-29T15:08:53Z</time>
      </trkpt>
      <trkpt lat="45.61212" lon="6.91518">
        <ele>1642</ele>
        <time>2012-03-29T15:09:15Z</time>
      </trkpt>
      <trkpt lat="45.61226" lon="6.91511">
        <ele>1642</ele>
        <time>2012-03-29T15:09:32Z</time>
      </trkpt>
      <trkpt lat="45.6123" lon="6.91515">
        <ele>1643</ele>
        <time>2012-03-29T15:09:50Z</time>
      </trkpt>
      <trkpt lat="45.61242" lon="6.91515">
        <ele>1644</ele>
        <time>2012-03-29T15:10:06Z</time>
      </trkpt>
      <trkpt lat="45.61249" lon="6.91523">
        <ele>1646</ele>
        <time>2012-03-29T15:10:28Z</time>
      </trkpt>
      <trkpt lat="45.61263" lon="6.91528">
        <ele>1648</ele>
        <time>2012-03-29T15:10:50Z</time>
      </trkpt>
      <trkpt lat="45.61252" lon="6.91535">
        <ele>1648</ele>
        <time>2012-03-29T15:11:13Z</time>
      </trkpt>
      <trkpt lat="45.61255" lon="6.91548">
        <ele>1649</ele>
        <time>2012-03-29T15:11:32Z</time>
      </trkpt>
      <trkpt lat="45.61272" lon="6.91555">
        <ele>1653</ele>
        <time>2012-03-29T15:11:55Z</time>
      </trkpt>
      <trkpt lat="45.61281" lon="6.91556">
        <ele>1655</ele>
        <time>2012-03-29T15:12:10Z</time>
      </trkpt>
      <trkpt lat="45.61291" lon="6.91558">
        <ele>1657</ele>
        <time>2012-03-29T15:12:28Z</time>
      </trkpt>
      <trkpt lat="45.6131" lon="6.91554">
        <ele>1661</ele>
        <time>2012-03-29T15:12:49Z</time>
      </trkpt>
      <trkpt lat="45.61311" lon="6.91562">
        <ele>1662</ele>
        <time>2012-03-29T15:13:10Z</time>
      </trkpt>
      <trkpt lat="45.61316" lon="6.91573">
        <ele>1665</ele>
        <time>2012-03-29T15:13:30Z</time>
      </trkpt>
      <trkpt lat="45.61325" lon="6.91576">
        <ele>1667</ele>
        <time>2012-03-29T15:13:49Z</time>
      </trkpt>
      <trkpt lat="45.61335" lon="6.91579">
        <ele>1670</ele>
        <time>2012-03-29T15:14:10Z</time>
      </trkpt>
      <trkpt lat="45.61343" lon="6.91592">
        <ele>1674</ele>
        <time>2012-03-29T15:14:31Z</time>
      </trkpt>
      <trkpt lat="45.61348" lon="6.91599">
        <ele>1676</ele>
        <time>2012-03-29T15:14:47Z</time>
      </trkpt>
      <trkpt lat="45.61356" lon="6.91612">
        <ele>1678</ele>
        <time>2012-03-29T15:15:07Z</time>
      </trkpt>
      <trkpt lat="45.61365" lon="6.91616">
        <ele>1680</ele>
        <time>2012-03-29T15:15:27Z</time>
      </trkpt>
      <trkpt lat="45.61376" lon="6.91615">
        <ele>1683</ele>
        <time>2012-03-29T15:15:47Z</time>
      </trkpt>
      <trkpt lat="45.61372" lon="6.91629">
        <ele>1683</ele>
        <time>2012-03-29T15:16:06Z</time>
      </trkpt>
      <trkpt lat="45.61365" lon="6.91648">
        <ele>1683</ele>
        <time>2012-03-29T15:16:27Z</time>
      </trkpt>
      <trkpt lat="45.61379" lon="6.91648">
        <ele>1685</ele>
        <time>2012-03-29T15:16:49Z</time>
      </trkpt>
      <trkpt lat="45.61386" lon="6.91641">
        <ele>1686</ele>
        <time>2012-03-29T15:17:00Z</time>
      </trkpt>
      <trkpt lat="45.61398" lon="6.9163">
        <ele>1687</ele>
        <time>2012-03-29T15:17:21Z</time>
      </trkpt>
      <trkpt lat="45.61398" lon="6.91629">
        <ele>1687</ele>
        <time>2012-03-29T15:17:23Z</time>
      </trkpt>
      <trkpt lat="45.61408" lon="6.91625">
        <ele>1689</ele>
        <time>2012-03-29T15:17:37Z</time>
      </trkpt>
      <trkpt lat="45.61417" lon="6.9162">
        <ele>1690</ele>
        <time>2012-03-29T15:17:56Z</time>
      </trkpt>
      <trkpt lat="45.6143" lon="6.91622">
        <ele>1692</ele>
        <time>2012-03-29T15:18:15Z</time>
      </trkpt>
      <trkpt lat="45.61444" lon="6.91617">
        <ele>1693</ele>
        <time>2012-03-29T15:18:33Z</time>
      </trkpt>
      <trkpt lat="45.61451" lon="6.91622">
        <ele>1694</ele>
        <time>2012-03-29T15:18:52Z</time>
      </trkpt>
      <trkpt lat="45.6146" lon="6.91627">
        <ele>1695</ele>
        <time>2012-03-29T15:19:13Z</time>
      </trkpt>
      <trkpt lat="45.61475" lon="6.91637">
        <ele>1696</ele>
        <time>2012-03-29T15:19:33Z</time>
      </trkpt>
      <trkpt lat="45.61483" lon="6.9164">
        <ele>1697</ele>
        <time>2012-03-29T15:19:48Z</time>
      </trkpt>
      <trkpt lat="45.61501" lon="6.91635">
        <ele>1700</ele>
        <time>2012-03-29T15:20:10Z</time>
      </trkpt>
      <trkpt lat="45.61518" lon="6.91641">
        <ele>1702</ele>
        <time>2012-03-29T15:20:31Z</time>
      </trkpt>
      <trkpt lat="45.61526" lon="6.91646">
        <ele>1702</ele>
        <time>2012-03-29T15:20:52Z</time>
      </trkpt>
      <trkpt lat="45.61545" lon="6.91642">
        <ele>1706</ele>
        <time>2012-03-29T15:21:16Z</time>
      </trkpt>
      <trkpt lat="45.61552" lon="6.91641">
        <ele>1708</ele>
        <time>2012-03-29T15:21:36Z</time>
      </trkpt>
      <trkpt lat="45.61548" lon="6.91643">
        <ele>1707</ele>
        <time>2012-03-29T15:22:54Z</time>
      </trkpt>
      <trkpt lat="45.61567" lon="6.91634">
        <ele>1711</ele>
        <time>2012-03-29T15:26:53Z</time>
      </trkpt>
      <trkpt lat="45.61577" lon="6.91632">
        <ele>1713</ele>
        <time>2012-03-29T15:27:13Z</time>
      </trkpt>
      <trkpt lat="45.61594" lon="6.91637">
        <ele>1717</ele>
        <time>2012-03-29T15:27:40Z</time>
      </trkpt>
      <trkpt lat="45.61606" lon="6.9163">
        <ele>1720</ele>
        <time>2012-03-29T15:28:05Z</time>
      </trkpt>
      <trkpt lat="45.61616" lon="6.91644">
        <ele>1721</ele>
        <time>2012-03-29T15:28:26Z</time>
      </trkpt>
      <trkpt lat="45.61614" lon="6.91645">
        <ele>1721</ele>
        <time>2012-03-29T15:28:44Z</time>
      </trkpt>
      <trkpt lat="45.61615" lon="6.9165">
        <ele>1721</ele>
        <time>2012-03-29T15:29:19Z</time>
      </trkpt>
      <trkpt lat="45.61628" lon="6.91669">
        <ele>1723</ele>
        <time>2012-03-29T15:30:00Z</time>
      </trkpt>
      <trkpt lat="45.6164" lon="6.91672">
        <ele>1725</ele>
        <time>2012-03-29T15:30:21Z</time>
      </trkpt>
      <trkpt lat="45.61657" lon="6.91685">
        <ele>1727</ele>
        <time>2012-03-29T15:30:51Z</time>
      </trkpt>
      <trkpt lat="45.6167" lon="6.91692">
        <ele>1729</ele>
        <time>2012-03-29T15:31:21Z</time>
      </trkpt>
      <trkpt lat="45.61689" lon="6.91701">
        <ele>1730</ele>
        <time>2012-03-29T15:31:47Z</time>
      </trkpt>
      <trkpt lat="45.61705" lon="6.91707">
        <ele>1731</ele>
        <time>2012-03-29T15:32:12Z</time>
      </trkpt>
      <trkpt lat="45.61715" lon="6.91718">
        <ele>1731</ele>
        <time>2012-03-29T15:32:30Z</time>
      </trkpt>
      <trkpt lat="45.61729" lon="6.91719">
        <ele>1732</ele>
        <time>2012-03-29T15:32:51Z</time>
      </trkpt>
      <trkpt lat="45.61746" lon="6.91721">
        <ele>1734</ele>
        <time>2012-03-29T15:33:09Z</time>
      </trkpt>
      <trkpt lat="45.61765" lon="6.91723">
        <ele>1736</ele>
        <time>2012-03-29T15:33:37Z</time>
      </trkpt>
      <trkpt lat="45.61786" lon="6.91729">
        <ele>1738</ele>
        <time>2012-03-29T15:34:04Z</time>
      </trkpt>
      <trkpt lat="45.61802" lon="6.91738">
        <ele>1739</ele>
        <time>2012-03-29T15:34:23Z</time>
      </trkpt>
      <trkpt lat="45.61821" lon="6.91743">
        <ele>1741</ele>
        <time>2012-03-29T15:34:44Z</time>
      </trkpt>
      <trkpt lat="45.61829" lon="6.91745">
        <ele>1742</ele>
        <time>2012-03-29T15:34:56Z</time>
      </trkpt>
      <trkpt lat="45.61844" lon="6.91752">
        <ele>1744</ele>
        <time>2012-03-29T15:35:17Z</time>
      </trkpt>
      <trkpt lat="45.61855" lon="6.91754">
        <ele>1745</ele>
        <time>2012-03-29T15:35:28Z</time>
      </trkpt>
      <trkpt lat="45.6187" lon="6.91755">
        <ele>1747</ele>
        <time>2012-03-29T15:35:47Z</time>
      </trkpt>
      <trkpt lat="45.6189" lon="6.91755">
        <ele>1750</ele>
        <time>2012-03-29T15:36:09Z</time>
      </trkpt>
      <trkpt lat="45.61903" lon="6.91761">
        <ele>1752</ele>
        <time>2012-03-29T15:36:24Z</time>
      </trkpt>
      <trkpt lat="45.61919" lon="6.91769">
        <ele>1754</ele>
        <time>2012-03-29T15:36:43Z</time>
      </trkpt>
      <trkpt lat="45.61933" lon="6.91775">
        <ele>1757</ele>
        <time>2012-03-29T15:36:57Z</time>
      </trkpt>
      <trkpt lat="45.61952" lon="6.91782">
        <ele>1761</ele>
        <time>2012-03-29T15:37:20Z</time>
      </trkpt>
      <trkpt lat="45.61967" lon="6.91788">
        <ele>1764</ele>
        <time>2012-03-29T15:37:40Z</time>
      </trkpt>
      <trkpt lat="45.61978" lon="6.918">
        <ele>1766</ele>
        <time>2012-03-29T15:38:02Z</time>
      </trkpt>
      <trkpt lat="45.6199" lon="6.91818">
        <ele>1767</ele>
        <time>2012-03-29T15:38:21Z</time>
      </trkpt>
      <trkpt lat="45.62001" lon="6.91827">
        <ele>1769</ele>
        <time>2012-03-29T15:38:40Z</time>
      </trkpt>
      <trkpt lat="45.62015" lon="6.91849">
        <ele>1770</ele>
        <time>2012-03-29T15:39:05Z</time>
      </trkpt>
      <trkpt lat="45.62028" lon="6.91861">
        <ele>1772</ele>
        <time>2012-03-29T15:39:23Z</time>
      </trkpt>
      <trkpt lat="45.62031" lon="6.91867">
        <ele>1772</ele>
        <time>2012-03-29T15:39:30Z</time>
      </trkpt>
      <trkpt lat="45.62033" lon="6.91882">
        <ele>1771</ele>
        <time>2012-03-29T15:39:45Z</time>
      </trkpt>
      <trkpt lat="45.62037" lon="6.91898">
        <ele>1771</ele>
        <time>2012-03-29T15:39:58Z</time>
      </trkpt>
      <trkpt lat="45.6204" lon="6.91908">
        <ele>1771</ele>
        <time>2012-03-29T15:40:06Z</time>
      </trkpt>
      <trkpt lat="45.62046" lon="6.91918">
        <ele>1773</ele>
        <time>2012-03-29T15:40:15Z</time>
      </trkpt>
      <trkpt lat="45.62058" lon="6.91928">
        <ele>1776</ele>
        <time>2012-03-29T15:40:29Z</time>
      </trkpt>
      <trkpt lat="45.62067" lon="6.91944">
        <ele>1778</ele>
        <time>2012-03-29T15:40:40Z</time>
      </trkpt>
      <trkpt lat="45.62074" lon="6.91955">
        <ele>1780</ele>
        <time>2012-03-29T15:40:57Z</time>
      </trkpt>
      <trkpt lat="45.6208" lon="6.91958">
        <ele>1781</ele>
        <time>2012-03-29T15:41:09Z</time>
      </trkpt>
      <trkpt lat="45.62087" lon="6.91969">
        <ele>1782</ele>
        <time>2012-03-29T15:41:25Z</time>
      </trkpt>
      <trkpt lat="45.62103" lon="6.91981">
        <ele>1787</ele>
        <time>2012-03-29T15:41:49Z</time>
      </trkpt>
      <trkpt lat="45.62112" lon="6.91993">
        <ele>1791</ele>
        <time>2012-03-29T15:42:02Z</time>
      </trkpt>
      <trkpt lat="45.62121" lon="6.92008">
        <ele>1795</ele>
        <time>2012-03-29T15:42:25Z</time>
      </trkpt>
      <trkpt lat="45.62127" lon="6.92023">
        <ele>1798</ele>
        <time>2012-03-29T15:42:43Z</time>
      </trkpt>
      <trkpt lat="45.62137" lon="6.92033">
        <ele>1803</ele>
        <time>2012-03-29T15:43:00Z</time>
      </trkpt>
      <trkpt lat="45.62141" lon="6.92051">
        <ele>1808</ele>
        <time>2012-03-29T15:43:19Z</time>
      </trkpt>
      <trkpt lat="45.62142" lon="6.92053">
        <ele>1809</ele>
        <time>2012-03-29T15:43:22Z</time>
      </trkpt>
      <trkpt lat="45.62141" lon="6.92067">
        <ele>1812</ele>
        <time>2012-03-29T15:43:40Z</time>
      </trkpt>
      <trkpt lat="45.62136" lon="6.92082">
        <ele>1814</ele>
        <time>2012-03-29T15:44:01Z</time>
      </trkpt>
      <trkpt lat="45.62134" lon="6.92098">
        <ele>1818</ele>
        <time>2012-03-29T15:44:17Z</time>
      </trkpt>
      <trkpt lat="45.62131" lon="6.9211">
        <ele>1821</ele>
        <time>2012-03-29T15:44:32Z</time>
      </trkpt>
      <trkpt lat="45.62127" lon="6.92125">
        <ele>1825</ele>
        <time>2012-03-29T15:44:51Z</time>
      </trkpt>
      <trkpt lat="45.62121" lon="6.92139">
        <ele>1828</ele>
        <time>2012-03-29T15:45:11Z</time>
      </trkpt>
      <trkpt lat="45.62117" lon="6.92154">
        <ele>1832</ele>
        <time>2012-03-29T15:45:29Z</time>
      </trkpt>
      <trkpt lat="45.62113" lon="6.92162">
        <ele>1834</ele>
        <time>2012-03-29T15:45:40Z</time>
      </trkpt>
      <trkpt lat="45.62107" lon="6.9217">
        <ele>1834</ele>
        <time>2012-03-29T15:46:08Z</time>
      </trkpt>
      <trkpt lat="45.62104" lon="6.92177">
        <ele>1836</ele>
        <time>2012-03-29T15:46:24Z</time>
      </trkpt>
      <trkpt lat="45.62097" lon="6.92194">
        <ele>1839</ele>
        <time>2012-03-29T15:46:46Z</time>
      </trkpt>
      <trkpt lat="45.62089" lon="6.92207">
        <ele>1841</ele>
        <time>2012-03-29T15:47:05Z</time>
      </trkpt>
      <trkpt lat="45.62084" lon="6.92224">
        <ele>1844</ele>
        <time>2012-03-29T15:47:23Z</time>
      </trkpt>
      <trkpt lat="45.62081" lon="6.92234">
        <ele>1846</ele>
        <time>2012-03-29T15:47:38Z</time>
      </trkpt>
      <trkpt lat="45.62079" lon="6.9224">
        <ele>1847</ele>
        <time>2012-03-29T15:47:51Z</time>
      </trkpt>
      <trkpt lat="45.62073" lon="6.92249">
        <ele>1847</ele>
        <time>2012-03-29T15:48:09Z</time>
      </trkpt>
      <trkpt lat="45.62068" lon="6.92255">
        <ele>1847</ele>
        <time>2012-03-29T15:48:26Z</time>
      </trkpt>
      <trkpt lat="45.62061" lon="6.92256">
        <ele>1845</ele>
        <time>2012-03-29T15:48:41Z</time>
      </trkpt>
      <trkpt lat="45.6206" lon="6.9226">
        <ele>1846</ele>
        <time>2012-03-29T15:48:55Z</time>
      </trkpt>
      <trkpt lat="45.62065" lon="6.92262">
        <ele>1848</ele>
        <time>2012-03-29T15:49:10Z</time>
      </trkpt>
      <trkpt lat="45.62073" lon="6.92266">
        <ele>1852</ele>
        <time>2012-03-29T15:49:29Z</time>
      </trkpt>
      <trkpt lat="45.6207" lon="6.92273">
        <ele>1853</ele>
        <time>2012-03-29T15:49:44Z</time>
      </trkpt>
      <trkpt lat="45.62068" lon="6.92278">
        <ele>1854</ele>
        <time>2012-03-29T15:50:04Z</time>
      </trkpt>
      <trkpt lat="45.62067" lon="6.92288">
        <ele>1856</ele>
        <time>2012-03-29T15:50:21Z</time>
      </trkpt>
      <trkpt lat="45.62072" lon="6.92288">
        <ele>1858</ele>
        <time>2012-03-29T15:50:34Z</time>
      </trkpt>
      <trkpt lat="45.62082" lon="6.92283">
        <ele>1859</ele>
        <time>2012-03-29T15:50:51Z</time>
      </trkpt>
      <trkpt lat="45.6209" lon="6.9228">
        <ele>1861</ele>
        <time>2012-03-29T15:51:05Z</time>
      </trkpt>
      <trkpt lat="45.62098" lon="6.92279">
        <ele>1864</ele>
        <time>2012-03-29T15:51:20Z</time>
      </trkpt>
      <trkpt lat="45.62108" lon="6.92275">
        <ele>1867</ele>
        <time>2012-03-29T15:51:39Z</time>
      </trkpt>
      <trkpt lat="45.6211" lon="6.92285">
        <ele>1870</ele>
        <time>2012-03-29T15:51:56Z</time>
      </trkpt>
      <trkpt lat="45.62112" lon="6.92298">
        <ele>1874</ele>
        <time>2012-03-29T15:52:10Z</time>
      </trkpt>
      <trkpt lat="45.62111" lon="6.92315">
        <ele>1881</ele>
        <time>2012-03-29T15:52:28Z</time>
      </trkpt>
      <trkpt lat="45.62117" lon="6.92323">
        <ele>1885</ele>
        <time>2012-03-29T15:52:52Z</time>
      </trkpt>
      <trkpt lat="45.62123" lon="6.92313">
        <ele>1883</ele>
        <time>2012-03-29T15:53:06Z</time>
      </trkpt>
      <trkpt lat="45.62127" lon="6.92296">
        <ele>1880</ele>
        <time>2012-03-29T15:53:29Z</time>
      </trkpt>
      <trkpt lat="45.62134" lon="6.92282">
        <ele>1879</ele>
        <time>2012-03-29T15:53:47Z</time>
      </trkpt>
      <trkpt lat="45.62136" lon="6.92278">
        <ele>1879</ele>
        <time>2012-03-29T15:53:51Z</time>
      </trkpt>
      <trkpt lat="45.62139" lon="6.92263">
        <ele>1877</ele>
        <time>2012-03-29T15:54:08Z</time>
      </trkpt>
      <trkpt lat="45.62154" lon="6.92261">
        <ele>1882</ele>
        <time>2012-03-29T15:54:29Z</time>
      </trkpt>
      <trkpt lat="45.62164" lon="6.92261">
        <ele>1886</ele>
        <time>2012-03-29T15:54:46Z</time>
      </trkpt>
      <trkpt lat="45.62172" lon="6.92268">
        <ele>1891</ele>
        <time>2012-03-29T15:55:02Z</time>
      </trkpt>
      <trkpt lat="45.62164" lon="6.92278">
        <ele>1890</ele>
        <time>2012-03-29T15:55:18Z</time>
      </trkpt>
      <trkpt lat="45.62168" lon="6.92286">
        <ele>1894</ele>
        <time>2012-03-29T15:55:34Z</time>
      </trkpt>
      <trkpt lat="45.62177" lon="6.92282">
        <ele>1897</ele>
        <time>2012-03-29T15:55:51Z</time>
      </trkpt>
      <trkpt lat="45.62186" lon="6.9227">
        <ele>1896</ele>
        <time>2012-03-29T15:56:07Z</time>
      </trkpt>
      <trkpt lat="45.62193" lon="6.92263">
        <ele>1897</ele>
        <time>2012-03-29T15:56:21Z</time>
      </trkpt>
      <trkpt lat="45.62202" lon="6.9226">
        <ele>1899</ele>
        <time>2012-03-29T15:56:39Z</time>
      </trkpt>
      <trkpt lat="45.62212" lon="6.92258">
        <ele>1903</ele>
        <time>2012-03-29T15:56:55Z</time>
      </trkpt>
      <trkpt lat="45.62222" lon="6.92254">
        <ele>1905</ele>
        <time>2012-03-29T15:57:09Z</time>
      </trkpt>
      <trkpt lat="45.62231" lon="6.92252">
        <ele>1907</ele>
        <time>2012-03-29T15:57:25Z</time>
      </trkpt>
      <trkpt lat="45.62239" lon="6.92255">
        <ele>1910</ele>
        <time>2012-03-29T15:57:43Z</time>
      </trkpt>
      <trkpt lat="45.62249" lon="6.92262">
        <ele>1913</ele>
        <time>2012-03-29T15:58:01Z</time>
      </trkpt>
      <trkpt lat="45.62258" lon="6.92267">
        <ele>1916</ele>
        <time>2012-03-29T15:58:23Z</time>
      </trkpt>
      <trkpt lat="45.62276" lon="6.92276">
        <ele>1918</ele>
        <time>2012-03-29T15:58:52Z</time>
      </trkpt>
      <trkpt lat="45.62284" lon="6.92284">
        <ele>1917</ele>
        <time>2012-03-29T15:59:08Z</time>
      </trkpt>
      <trkpt lat="45.6229" lon="6.92294">
        <ele>1916</ele>
        <time>2012-03-29T15:59:25Z</time>
      </trkpt>
      <trkpt lat="45.62298" lon="6.923">
        <ele>1915</ele>
        <time>2012-03-29T15:59:45Z</time>
      </trkpt>
      <trkpt lat="45.6231" lon="6.92308">
        <ele>1913</ele>
        <time>2012-03-29T16:00:10Z</time>
      </trkpt>
      <trkpt lat="45.62317" lon="6.92322">
        <ele>1913</ele>
        <time>2012-03-29T16:00:36Z</time>
      </trkpt>
      <trkpt lat="45.62322" lon="6.92333">
        <ele>1914</ele>
        <time>2012-03-29T16:01:00Z</time>
      </trkpt>
      <trkpt lat="45.62329" lon="6.92349">
        <ele>1916</ele>
        <time>2012-03-29T16:01:20Z</time>
      </trkpt>
      <trkpt lat="45.62337" lon="6.92359">
        <ele>1917</ele>
        <time>2012-03-29T16:01:36Z</time>
      </trkpt>
      <trkpt lat="45.62344" lon="6.92371">
        <ele>1918</ele>
        <time>2012-03-29T16:01:50Z</time>
      </trkpt>
      <trkpt lat="45.62351" lon="6.92387">
        <ele>1920</ele>
        <time>2012-03-29T16:02:06Z</time>
      </trkpt>
      <trkpt lat="45.62358" lon="6.92399">
        <ele>1921</ele>
        <time>2012-03-29T16:02:20Z</time>
      </trkpt>
      <trkpt lat="45.62361" lon="6.92403">
        <ele>1922</ele>
        <time>2012-03-29T16:02:25Z</time>
      </trkpt>
      <trkpt lat="45.62367" lon="6.92415">
        <ele>1923</ele>
        <time>2012-03-29T16:02:39Z</time>
      </trkpt>
      <trkpt lat="45.62375" lon="6.92429">
        <ele>1923</ele>
        <time>2012-03-29T16:02:55Z</time>
      </trkpt>
      <trkpt lat="45.62384" lon="6.92443">
        <ele>1924</ele>
        <time>2012-03-29T16:03:12Z</time>
      </trkpt>
      <trkpt lat="45.62384" lon="6.92449">
        <ele>1925</ele>
        <time>2012-03-29T16:03:43Z</time>
      </trkpt>
      <trkpt lat="45.62389" lon="6.92447">
        <ele>1924</ele>
        <time>2012-03-29T16:06:54Z</time>
      </trkpt>
      <trkpt lat="45.62388" lon="6.92457">
        <ele>1926</ele>
        <time>2012-03-29T16:08:41Z</time>
      </trkpt>
      <trkpt lat="45.62389" lon="6.92473">
        <ele>1929</ele>
        <time>2012-03-29T16:08:55Z</time>
      </trkpt>
      <trkpt lat="45.6239" lon="6.92489">
        <ele>1931</ele>
        <time>2012-03-29T16:09:09Z</time>
      </trkpt>
      <trkpt lat="45.62395" lon="6.92506">
        <ele>1934</ele>
        <time>2012-03-29T16:09:23Z</time>
      </trkpt>
      <trkpt lat="45.62401" lon="6.92532">
        <ele>1936</ele>
        <time>2012-03-29T16:09:42Z</time>
      </trkpt>
      <trkpt lat="45.62405" lon="6.92556">
        <ele>1938</ele>
        <time>2012-03-29T16:10:00Z</time>
      </trkpt>
      <trkpt lat="45.62407" lon="6.92569">
        <ele>1939</ele>
        <time>2012-03-29T16:10:09Z</time>
      </trkpt>
      <trkpt lat="45.6241" lon="6.92577">
        <ele>1939</ele>
        <time>2012-03-29T16:10:16Z</time>
      </trkpt>
      <trkpt lat="45.62415" lon="6.92591">
        <ele>1939</ele>
        <time>2012-03-29T16:10:27Z</time>
      </trkpt>
      <trkpt lat="45.62414" lon="6.92611">
        <ele>1938</ele>
        <time>2012-03-29T16:10:42Z</time>
      </trkpt>
      <trkpt lat="45.62414" lon="6.9263">
        <ele>1938</ele>
        <time>2012-03-29T16:10:55Z</time>
      </trkpt>
      <trkpt lat="45.62418" lon="6.92641">
        <ele>1937</ele>
        <time>2012-03-29T16:11:02Z</time>
      </trkpt>
      <trkpt lat="45.62422" lon="6.92661">
        <ele>1938</ele>
        <time>2012-03-29T16:11:18Z</time>
      </trkpt>
      <trkpt lat="45.62426" lon="6.92671">
        <ele>1938</ele>
        <time>2012-03-29T16:11:25Z</time>
      </trkpt>
      <trkpt lat="45.6243" lon="6.92692">
        <ele>1938</ele>
        <time>2012-03-29T16:11:40Z</time>
      </trkpt>
      <trkpt lat="45.62432" lon="6.92709">
        <ele>1938</ele>
        <time>2012-03-29T16:11:52Z</time>
      </trkpt>
      <trkpt lat="45.62438" lon="6.92729">
        <ele>1939</ele>
        <time>2012-03-29T16:12:08Z</time>
      </trkpt>
      <trkpt lat="45.62444" lon="6.92748">
        <ele>1939</ele>
        <time>2012-03-29T16:12:24Z</time>
      </trkpt>
      <trkpt lat="45.62444" lon="6.92758">
        <ele>1939</ele>
        <time>2012-03-29T16:12:33Z</time>
      </trkpt>
      <trkpt lat="45.62445" lon="6.92772">
        <ele>1940</ele>
        <time>2012-03-29T16:12:44Z</time>
      </trkpt>
      <trkpt lat="45.6245" lon="6.9279">
        <ele>1941</ele>
        <time>2012-03-29T16:12:56Z</time>
      </trkpt>
      <trkpt lat="45.62453" lon="6.92809">
        <ele>1942</ele>
        <time>2012-03-29T16:13:12Z</time>
      </trkpt>
      <trkpt lat="45.62453" lon="6.92815">
        <ele>1943</ele>
        <time>2012-03-29T16:13:17Z</time>
      </trkpt>
      <trkpt lat="45.62452" lon="6.92819">
        <ele>1943</ele>
        <time>2012-03-29T16:13:19Z</time>
      </trkpt>
      <trkpt lat="45.62453" lon="6.92828">
        <ele>1944</ele>
        <time>2012-03-29T16:13:25Z</time>
      </trkpt>
      <trkpt lat="45.62455" lon="6.92847">
        <ele>1946</ele>
        <time>2012-03-29T16:13:38Z</time>
      </trkpt>
      <trkpt lat="45.62456" lon="6.92861">
        <ele>1947</ele>
        <time>2012-03-29T16:13:51Z</time>
      </trkpt>
      <trkpt lat="45.62456" lon="6.92879">
        <ele>1950</ele>
        <time>2012-03-29T16:14:06Z</time>
      </trkpt>
      <trkpt lat="45.62455" lon="6.92885">
        <ele>1950</ele>
        <time>2012-03-29T16:14:11Z</time>
      </trkpt>
      <trkpt lat="45.6245" lon="6.92906">
        <ele>1953</ele>
        <time>2012-03-29T16:14:27Z</time>
      </trkpt>
      <trkpt lat="45.6245" lon="6.92914">
        <ele>1954</ele>
        <time>2012-03-29T16:14:32Z</time>
      </trkpt>
      <trkpt lat="45.62447" lon="6.92932">
        <ele>1957</ele>
        <time>2012-03-29T16:14:46Z</time>
      </trkpt>
      <trkpt lat="45.62447" lon="6.92949">
        <ele>1959</ele>
        <time>2012-03-29T16:14:58Z</time>
      </trkpt>
      <trkpt lat="45.62445" lon="6.92968">
        <ele>1961</ele>
        <time>2012-03-29T16:15:14Z</time>
      </trkpt>
      <trkpt lat="45.62446" lon="6.92971">
        <ele>1962</ele>
        <time>2012-03-29T16:15:17Z</time>
      </trkpt>
      <trkpt lat="45.62445" lon="6.92984">
        <ele>1962</ele>
        <time>2012-03-29T16:15:31Z</time>
      </trkpt>
      <trkpt lat="45.62441" lon="6.93001">
        <ele>1962</ele>
        <time>2012-03-29T16:15:45Z</time>
      </trkpt>
      <trkpt lat="45.62436" lon="6.93019">
        <ele>1963</ele>
        <time>2012-03-29T16:16:00Z</time>
      </trkpt>
      <trkpt lat="45.62436" lon="6.93023">
        <ele>1963</ele>
        <time>2012-03-29T16:16:04Z</time>
      </trkpt>
      <trkpt lat="45.62436" lon="6.93028">
        <ele>1963</ele>
        <time>2012-03-29T16:16:07Z</time>
      </trkpt>
      <trkpt lat="45.62429" lon="6.93044">
        <ele>1962</ele>
        <time>2012-03-29T16:16:21Z</time>
      </trkpt>
      <trkpt lat="45.62424" lon="6.93067">
        <ele>1962</ele>
        <time>2012-03-29T16:16:38Z</time>
      </trkpt>
      <trkpt lat="45.62423" lon="6.93068">
        <ele>1962</ele>
        <time>2012-03-29T16:16:39Z</time>
      </trkpt>
      <trkpt lat="45.62415" lon="6.93089">
        <ele>1960</ele>
        <time>2012-03-29T16:17:00Z</time>
      </trkpt>
      <trkpt lat="45.62404" lon="6.93109">
        <ele>1961</ele>
        <time>2012-03-29T16:17:21Z</time>
      </trkpt>
      <trkpt lat="45.62401" lon="6.93123">
        <ele>1961</ele>
        <time>2012-03-29T16:17:33Z</time>
      </trkpt>
      <trkpt lat="45.62401" lon="6.93124">
        <ele>1961</ele>
        <time>2012-03-29T16:17:34Z</time>
      </trkpt>
      <trkpt lat="45.624" lon="6.93127">
        <ele>1961</ele>
        <time>2012-03-29T16:17:37Z</time>
      </trkpt>
      <trkpt lat="45.62395" lon="6.93141">
        <ele>1962</ele>
        <time>2012-03-29T16:17:50Z</time>
      </trkpt>
      <trkpt lat="45.62388" lon="6.93161">
        <ele>1963</ele>
        <time>2012-03-29T16:18:06Z</time>
      </trkpt>
      <trkpt lat="45.62388" lon="6.93163">
        <ele>1963</ele>
        <time>2012-03-29T16:18:08Z</time>
      </trkpt>
      <trkpt lat="45.62381" lon="6.9318">
        <ele>1964</ele>
        <time>2012-03-29T16:18:23Z</time>
      </trkpt>
      <trkpt lat="45.6238" lon="6.93183">
        <ele>1965</ele>
        <time>2012-03-29T16:18:28Z</time>
      </trkpt>
      <trkpt lat="45.62377" lon="6.93205">
        <ele>1967</ele>
        <time>2012-03-29T16:18:43Z</time>
      </trkpt>
      <trkpt lat="45.62372" lon="6.93218">
        <ele>1968</ele>
        <time>2012-03-29T16:18:53Z</time>
      </trkpt>
      <trkpt lat="45.62372" lon="6.93221">
        <ele>1968</ele>
        <time>2012-03-29T16:18:55Z</time>
      </trkpt>
      <trkpt lat="45.62374" lon="6.9324">
        <ele>1973</ele>
        <time>2012-03-29T16:19:08Z</time>
      </trkpt>
      <trkpt lat="45.6238" lon="6.9325">
        <ele>1976</ele>
        <time>2012-03-29T16:19:17Z</time>
      </trkpt>
      <trkpt lat="45.62382" lon="6.93256">
        <ele>1978</ele>
        <time>2012-03-29T16:19:22Z</time>
      </trkpt>
      <trkpt lat="45.62388" lon="6.93272">
        <ele>1982</ele>
        <time>2012-03-29T16:19:32Z</time>
      </trkpt>
      <trkpt lat="45.62391" lon="6.93297">
        <ele>1986</ele>
        <time>2012-03-29T16:19:51Z</time>
      </trkpt>
      <trkpt lat="45.62391" lon="6.93301">
        <ele>1986</ele>
        <time>2012-03-29T16:19:53Z</time>
      </trkpt>
      <trkpt lat="45.62388" lon="6.93307">
        <ele>1985</ele>
        <time>2012-03-29T16:19:57Z</time>
      </trkpt>
      <trkpt lat="45.62388" lon="6.93325">
        <ele>1986</ele>
        <time>2012-03-29T16:20:09Z</time>
      </trkpt>
      <trkpt lat="45.62388" lon="6.93335">
        <ele>1987</ele>
        <time>2012-03-29T16:20:17Z</time>
      </trkpt>
      <trkpt lat="45.62388" lon="6.93355">
        <ele>1987</ele>
        <time>2012-03-29T16:20:31Z</time>
      </trkpt>
      <trkpt lat="45.62386" lon="6.93367">
        <ele>1987</ele>
        <time>2012-03-29T16:20:43Z</time>
      </trkpt>
      <trkpt lat="45.62384" lon="6.93384">
        <ele>1988</ele>
        <time>2012-03-29T16:20:56Z</time>
      </trkpt>
      <trkpt lat="45.62386" lon="6.93393">
        <ele>1988</ele>
        <time>2012-03-29T16:21:09Z</time>
      </trkpt>
      <trkpt lat="45.62388" lon="6.93408">
        <ele>1988</ele>
        <time>2012-03-29T16:21:29Z</time>
      </trkpt>
      <trkpt lat="45.62393" lon="6.93421">
        <ele>1992</ele>
        <time>2012-03-29T16:21:46Z</time>
      </trkpt>
      <trkpt lat="45.62396" lon="6.93437">
        <ele>1996</ele>
        <time>2012-03-29T16:22:04Z</time>
      </trkpt>
      <trkpt lat="45.62395" lon="6.93441">
        <ele>1997</ele>
        <time>2012-03-29T16:22:09Z</time>
      </trkpt>
      <trkpt lat="45.62389" lon="6.93448">
        <ele>1999</ele>
        <time>2012-03-29T16:22:23Z</time>
      </trkpt>
      <trkpt lat="45.62387" lon="6.93458">
        <ele>2002</ele>
        <time>2012-03-29T16:22:41Z</time>
      </trkpt>
      <trkpt lat="45.62401" lon="6.93464">
        <ele>2004</ele>
        <time>2012-03-29T16:23:03Z</time>
      </trkpt>
      <trkpt lat="45.62413" lon="6.93473">
        <ele>2007</ele>
        <time>2012-03-29T16:23:28Z</time>
      </trkpt>
      <trkpt lat="45.62424" lon="6.9348">
        <ele>2010</ele>
        <time>2012-03-29T16:23:46Z</time>
      </trkpt>
      <trkpt lat="45.62435" lon="6.93487">
        <ele>2014</ele>
        <time>2012-03-29T16:24:10Z</time>
      </trkpt>
      <trkpt lat="45.62445" lon="6.93486">
        <ele>2014</ele>
        <time>2012-03-29T16:24:29Z</time>
      </trkpt>
      <trkpt lat="45.62457" lon="6.93485">
        <ele>2016</ele>
        <time>2012-03-29T16:24:50Z</time>
      </trkpt>
      <trkpt lat="45.62463" lon="6.93484">
        <ele>2017</ele>
        <time>2012-03-29T16:25:08Z</time>
      </trkpt>
      <trkpt lat="45.62462" lon="6.935">
        <ele>2020</ele>
        <time>2012-03-29T16:25:29Z</time>
      </trkpt>
      <trkpt lat="45.62472" lon="6.93501">
        <ele>2021</ele>
        <time>2012-03-29T16:25:47Z</time>
      </trkpt>
      <trkpt lat="45.62484" lon="6.935">
        <ele>2023</ele>
        <time>2012-03-29T16:26:06Z</time>
      </trkpt>
      <trkpt lat="45.62495" lon="6.93499">
        <ele>2026</ele>
        <time>2012-03-29T16:26:25Z</time>
      </trkpt>
      <trkpt lat="45.62503" lon="6.93509">
        <ele>2028</ele>
        <time>2012-03-29T16:26:44Z</time>
      </trkpt>
      <trkpt lat="45.62505" lon="6.93525">
        <ele>2030</ele>
        <time>2012-03-29T16:27:03Z</time>
      </trkpt>
      <trkpt lat="45.62503" lon="6.93541">
        <ele>2030</ele>
        <time>2012-03-29T16:27:20Z</time>
      </trkpt>
      <trkpt lat="45.62505" lon="6.93555">
        <ele>2031</ele>
        <time>2012-03-29T16:27:36Z</time>
      </trkpt>
      <trkpt lat="45.62503" lon="6.93569">
        <ele>2032</ele>
        <time>2012-03-29T16:27:54Z</time>
      </trkpt>
      <trkpt lat="45.62498" lon="6.9359">
        <ele>2033</ele>
        <time>2012-03-29T16:28:16Z</time>
      </trkpt>
      <trkpt lat="45.62501" lon="6.93599">
        <ele>2034</ele>
        <time>2012-03-29T16:28:34Z</time>
      </trkpt>
      <trkpt lat="45.62502" lon="6.9361">
        <ele>2035</ele>
        <time>2012-03-29T16:28:44Z</time>
      </trkpt>
      <trkpt lat="45.62504" lon="6.93623">
        <ele>2036</ele>
        <time>2012-03-29T16:28:58Z</time>
      </trkpt>
      <trkpt lat="45.62506" lon="6.93642">
        <ele>2036</ele>
        <time>2012-03-29T16:29:12Z</time>
      </trkpt>
      <trkpt lat="45.62504" lon="6.93653">
        <ele>2036</ele>
        <time>2012-03-29T16:29:18Z</time>
      </trkpt>
      <trkpt lat="45.62504" lon="6.93661">
        <ele>2036</ele>
        <time>2012-03-29T16:29:24Z</time>
      </trkpt>
      <trkpt lat="45.62505" lon="6.93671">
        <ele>2036</ele>
        <time>2012-03-29T16:29:31Z</time>
      </trkpt>
      <trkpt lat="45.62505" lon="6.93687">
        <ele>2035</ele>
        <time>2012-03-29T16:29:41Z</time>
      </trkpt>
      <trkpt lat="45.62508" lon="6.93701">
        <ele>2034</ele>
        <time>2012-03-29T16:29:56Z</time>
      </trkpt>
      <trkpt lat="45.62514" lon="6.93724">
        <ele>2033</ele>
        <time>2012-03-29T16:30:11Z</time>
      </trkpt>
      <trkpt lat="45.62515" lon="6.93735">
        <ele>2033</ele>
        <time>2012-03-29T16:30:22Z</time>
      </trkpt>
      <trkpt lat="45.62519" lon="6.93745">
        <ele>2032</ele>
        <time>2012-03-29T16:30:32Z</time>
      </trkpt>
      <trkpt lat="45.6252" lon="6.93748">
        <ele>2032</ele>
        <time>2012-03-29T16:30:35Z</time>
      </trkpt>
      <trkpt lat="45.62523" lon="6.93767">
        <ele>2033</ele>
        <time>2012-03-29T16:30:50Z</time>
      </trkpt>
      <trkpt lat="45.62529" lon="6.93784">
        <ele>2033</ele>
        <time>2012-03-29T16:31:05Z</time>
      </trkpt>
      <trkpt lat="45.6253" lon="6.93787">
        <ele>2034</ele>
        <time>2012-03-29T16:31:08Z</time>
      </trkpt>
      <trkpt lat="45.62537" lon="6.93811">
        <ele>2034</ele>
        <time>2012-03-29T16:31:24Z</time>
      </trkpt>
      <trkpt lat="45.62543" lon="6.93829">
        <ele>2035</ele>
        <time>2012-03-29T16:31:38Z</time>
      </trkpt>
      <trkpt lat="45.62547" lon="6.93847">
        <ele>2036</ele>
        <time>2012-03-29T16:31:51Z</time>
      </trkpt>
      <trkpt lat="45.62549" lon="6.93854">
        <ele>2037</ele>
        <time>2012-03-29T16:31:56Z</time>
      </trkpt>
      <trkpt lat="45.62554" lon="6.93871">
        <ele>2037</ele>
        <time>2012-03-29T16:32:09Z</time>
      </trkpt>
      <trkpt lat="45.6256" lon="6.93886">
        <ele>2038</ele>
        <time>2012-03-29T16:32:22Z</time>
      </trkpt>
      <trkpt lat="45.62561" lon="6.93891">
        <ele>2038</ele>
        <time>2012-03-29T16:32:26Z</time>
      </trkpt>
      <trkpt lat="45.6257" lon="6.93906">
        <ele>2039</ele>
        <time>2012-03-29T16:32:40Z</time>
      </trkpt>
      <trkpt lat="45.62576" lon="6.9392">
        <ele>2039</ele>
        <time>2012-03-29T16:32:54Z</time>
      </trkpt>
      <trkpt lat="45.62586" lon="6.93938">
        <ele>2039</ele>
        <time>2012-03-29T16:33:08Z</time>
      </trkpt>
      <trkpt lat="45.62592" lon="6.93953">
        <ele>2039</ele>
        <time>2012-03-29T16:33:21Z</time>
      </trkpt>
      <trkpt lat="45.626" lon="6.93968">
        <ele>2039</ele>
        <time>2012-03-29T16:33:36Z</time>
      </trkpt>
      <trkpt lat="45.62604" lon="6.93976">
        <ele>2039</ele>
        <time>2012-03-29T16:33:45Z</time>
      </trkpt>
      <trkpt lat="45.62611" lon="6.93991">
        <ele>2039</ele>
        <time>2012-03-29T16:34:00Z</time>
      </trkpt>
      <trkpt lat="45.62615" lon="6.94007">
        <ele>2039</ele>
        <time>2012-03-29T16:34:16Z</time>
      </trkpt>
      <trkpt lat="45.62614" lon="6.94024">
        <ele>2039</ele>
        <time>2012-03-29T16:34:30Z</time>
      </trkpt>
      <trkpt lat="45.6261" lon="6.94043">
        <ele>2039</ele>
        <time>2012-03-29T16:34:48Z</time>
      </trkpt>
      <trkpt lat="45.62607" lon="6.94062">
        <ele>2039</ele>
        <time>2012-03-29T16:35:08Z</time>
      </trkpt>
      <trkpt lat="45.62608" lon="6.94067">
        <ele>2039</ele>
        <time>2012-03-29T16:35:20Z</time>
      </trkpt>
      <trkpt lat="45.62603" lon="6.94096">
        <ele>2037</ele>
        <time>2012-03-29T16:35:42Z</time>
      </trkpt>
      <trkpt lat="45.62573" lon="6.94101">
        <ele>2036</ele>
        <time>2012-03-29T16:35:57Z</time>
      </trkpt>
      <trkpt lat="45.62557" lon="6.94108">
        <ele>2034</ele>
        <time>2012-03-29T16:36:10Z</time>
      </trkpt>
      <trkpt lat="45.62559" lon="6.94121">
        <ele>2033</ele>
        <time>2012-03-29T16:36:26Z</time>
      </trkpt>
      <trkpt lat="45.62561" lon="6.9412">
        <ele>2033</ele>
        <time>2012-03-29T16:36:46Z</time>
      </trkpt>
      <trkpt lat="45.62561" lon="6.9412">
        <ele>2033</ele>
        <time>2012-03-29T16:36:52Z</time>
      </trkpt>
    </trkseg>
  </trk>
</gpx>